createdAt,value
2022-12-27T00:01:27.107Z,5.47
2022-12-27T00:03:54.473Z,4.43
2022-12-27T00:06:22.320Z,4.72
2022-12-27T00:08:48.951Z,4.25
2022-12-27T00:11:16.820Z,4.70
2022-12-27T00:13:43.380Z,4.95
2022-12-27T00:16:12.012Z,4.45
2022-12-27T00:18:39.356Z,4.80
2022-12-27T00:21:06.761Z,5.22
2022-12-27T00:23:34.558Z,4.30
2022-12-27T00:26:05.388Z,4.45
2022-12-27T00:28:32.340Z,4.00
2022-12-27T00:30:59.363Z,4.43
2022-12-27T00:33:25.946Z,4.97
2022-12-27T00:35:52.400Z,4.40
2022-12-27T00:38:18.964Z,4.15
2022-12-27T00:40:45.482Z,4.10
2022-12-27T00:43:11.943Z,4.32
2022-12-27T00:45:41.516Z,5.53
2022-12-27T00:48:08.006Z,3.60
2022-12-27T00:50:34.453Z,4.05
2022-12-27T00:53:01.022Z,4.22
2022-12-27T00:55:27.470Z,4.10
2022-12-27T00:57:54.276Z,4.22
2022-12-27T01:03:30.322Z,4.15
2022-12-27T01:05:56.802Z,4.55
2022-12-27T01:08:23.340Z,4.68
2022-12-27T01:10:50.280Z,4.38
2022-12-27T01:13:16.844Z,4.78
2022-12-27T01:15:43.353Z,4.22
2022-12-27T01:18:09.835Z,5.43
2022-12-27T01:20:37.510Z,3.33
2022-12-27T01:23:04.073Z,4.75
2022-12-27T01:25:30.509Z,4.45
2022-12-27T01:27:56.960Z,4.88
2022-12-27T01:30:23.425Z,4.63
2022-12-27T01:32:49.885Z,4.47
2022-12-27T01:35:16.356Z,3.70
2022-12-27T01:37:42.839Z,4.00
2022-12-27T01:40:11.891Z,4.13
2022-12-27T01:42:53.562Z,7.07
2022-12-27T01:45:21.220Z,5.00
2022-12-27T01:47:56.126Z,4.25
2022-12-27T01:50:25.836Z,3.88
2022-12-27T01:52:56.644Z,4.32
2022-12-27T01:55:35.361Z,3.97
2022-12-27T01:58:17.095Z,4.80
2022-12-27T02:00:44.472Z,3.58
2022-12-27T02:03:12.027Z,3.80
2022-12-27T02:05:41.791Z,3.28
2022-12-27T02:08:08.381Z,5.55
2022-12-27T02:10:35.357Z,3.25
2022-12-27T02:13:03.101Z,3.80
2022-12-27T02:15:29.566Z,4.57
2022-12-27T02:17:56.084Z,3.70
2022-12-27T02:20:23.387Z,4.05
2022-12-27T02:23:27.316Z,4.85
2022-12-27T02:25:53.705Z,3.90
2022-12-27T02:28:40.747Z,3.58
2022-12-27T02:31:11.016Z,3.67
2022-12-27T02:33:42.225Z,3.50
2022-12-27T02:36:11.247Z,3.38
2022-12-27T02:38:39.273Z,3.28
2022-12-27T02:41:26.269Z,3.50
2022-12-27T02:44:14.361Z,3.80
2022-12-27T02:46:59.485Z,4.10
2022-12-27T02:49:45.643Z,3.00
2022-12-27T02:52:49.092Z,3.42
2022-12-27T02:55:37.704Z,4.30
2022-12-27T02:58:13.356Z,3.10
2022-12-27T03:01:18.848Z,3.70
2022-12-27T03:04:08.707Z,2.83
2022-12-27T03:06:41.122Z,4.15
2022-12-27T03:09:07.722Z,3.30
2022-12-27T03:12:23.419Z,3.90
2022-12-27T03:15:09.122Z,3.28
2022-12-27T03:17:40.280Z,3.55
2022-12-27T03:20:27.368Z,3.33
2022-12-27T03:23:13.484Z,3.60
2022-12-27T03:25:40.455Z,3.50
2022-12-27T03:28:27.546Z,4.20
2022-12-27T03:31:15.915Z,2.95
2022-12-27T03:33:43.174Z,3.55
2022-12-27T03:36:36.055Z,3.50
2022-12-27T03:39:08.185Z,2.90
2022-12-27T03:41:57.205Z,3.50
2022-12-27T03:44:24.607Z,4.00
2022-12-27T03:47:20.731Z,2.83
2022-12-27T03:49:47.225Z,2.50
2022-12-27T03:52:34.856Z,4.28
2022-12-27T03:55:01.741Z,3.50
2022-12-27T03:57:28.829Z,3.88
2022-12-27T03:59:55.301Z,3.33
2022-12-27T04:02:22.134Z,2.88
2022-12-27T04:04:48.871Z,3.45
2022-12-27T04:07:15.705Z,3.30
2022-12-27T04:10:01.883Z,3.10
2022-12-27T04:12:46.637Z,3.30
2022-12-27T04:15:31.682Z,3.92
2022-12-27T04:18:16.752Z,3.33
2022-12-27T04:21:01.931Z,2.97
2022-12-27T04:23:47.132Z,3.40
2022-12-27T04:26:33.513Z,3.78
2022-12-27T04:29:18.862Z,3.63
2022-12-27T04:32:04.022Z,3.25
2022-12-27T04:34:42.921Z,3.65
2022-12-27T04:37:13.986Z,3.22
2022-12-27T04:39:40.457Z,3.28
2022-12-27T04:42:25.661Z,3.17
2022-12-27T04:45:15.153Z,4.07
2022-12-27T04:48:00.464Z,3.00
2022-12-27T04:50:50.102Z,3.92
2022-12-27T04:53:36.550Z,4.10
2022-12-27T04:56:04.137Z,4.15
2022-12-27T04:58:30.803Z,4.25
2022-12-27T05:01:17.966Z,2.92
2022-12-27T05:03:45.563Z,4.07
2022-12-27T05:06:12.222Z,3.38
2022-12-27T05:08:57.243Z,4.07
2022-12-27T05:11:42.322Z,3.25
2022-12-27T05:14:10.752Z,3.33
2022-12-27T05:16:46.365Z,3.25
2022-12-27T05:19:13.658Z,4.30
2022-12-27T05:22:01.428Z,3.15
2022-12-27T05:24:46.398Z,2.95
2022-12-27T05:27:12.985Z,3.22
2022-12-27T05:29:39.407Z,3.38
2022-12-27T05:32:12.623Z,4.07
2022-12-27T05:34:39.681Z,3.70
2022-12-27T05:37:06.097Z,3.20
2022-12-27T05:39:32.556Z,2.78
2022-12-27T05:41:59.168Z,4.15
2022-12-27T05:44:25.634Z,4.80
2022-12-27T05:46:53.796Z,3.58
2022-12-27T05:49:20.234Z,4.47
2022-12-27T05:51:46.651Z,4.53
2022-12-27T05:54:13.163Z,3.90
2022-12-27T05:56:39.689Z,3.97
2022-12-27T05:59:10.493Z,4.47
2022-12-27T06:01:37.060Z,3.92
2022-12-27T06:04:03.616Z,4.32
2022-12-27T06:06:30.112Z,3.88
2022-12-27T06:08:56.685Z,4.85
2022-12-27T06:11:23.210Z,4.72
2022-12-27T06:13:51.295Z,3.65
2022-12-27T06:16:18.407Z,3.95
2022-12-27T06:18:44.893Z,4.43
2022-12-27T06:21:12.839Z,3.83
2022-12-27T06:23:40.517Z,5.20
2022-12-27T06:26:08.222Z,4.55
2022-12-27T06:28:35.159Z,3.80
2022-12-27T06:31:01.885Z,4.78
2022-12-27T06:33:28.813Z,5.25
2022-12-27T06:35:55.297Z,4.10
2022-12-27T06:38:24.720Z,5.70
2022-12-27T06:40:51.195Z,4.75
2022-12-27T06:43:17.667Z,4.80
2022-12-27T06:45:44.218Z,3.95
2022-12-27T06:48:12.473Z,4.35
2022-12-27T06:50:38.999Z,4.13
2022-12-27T06:53:05.466Z,4.95
2022-12-27T06:55:31.940Z,4.70
2022-12-27T06:57:58.364Z,4.57
2022-12-27T07:00:24.784Z,4.13
2022-12-27T07:02:51.392Z,4.70
2022-12-27T07:05:17.917Z,5.55
2022-12-27T07:07:44.396Z,6.88
2022-12-27T07:10:13.761Z,5.18
2022-12-27T07:12:40.245Z,4.85
2022-12-27T07:15:07.144Z,4.47
2022-12-27T07:17:37.058Z,4.68
2022-12-27T07:20:04.341Z,5.32
2022-12-27T07:22:30.915Z,5.43
2022-12-27T07:24:57.555Z,5.70
2022-12-27T07:27:24.447Z,5.65
2022-12-27T07:29:53.168Z,5.32
2022-12-27T07:32:19.641Z,7.10
2022-12-27T07:34:46.201Z,5.85
2022-12-27T07:37:14.680Z,6.72
2022-12-27T07:39:41.194Z,5.60
2022-12-27T07:42:09.958Z,5.53
2022-12-27T07:44:36.578Z,5.43
2022-12-27T07:47:03.041Z,6.25
2022-12-27T07:49:29.518Z,6.50
2022-12-27T07:51:55.962Z,6.13
2022-12-27T07:54:22.575Z,6.10
2022-12-27T07:56:49.073Z,6.40
2022-12-27T07:59:15.618Z,6.10
2022-12-27T08:02:00.929Z,6.35
2022-12-27T08:04:29.812Z,6.55
2022-12-27T08:06:59.811Z,5.68
2022-12-27T08:09:29.379Z,5.95
2022-12-27T08:11:55.963Z,6.07
2022-12-27T08:14:22.369Z,6.65
2022-12-27T08:16:48.852Z,6.50
2022-12-27T08:19:15.344Z,6.53
2022-12-27T08:21:41.826Z,6.88
2022-12-27T08:24:08.301Z,6.10
2022-12-27T08:26:34.755Z,6.53
2022-12-27T08:29:01.200Z,6.05
2022-12-27T08:31:28.311Z,6.30
2022-12-27T08:33:58.614Z,5.53
2022-12-27T08:39:12.206Z,5.57
2022-12-27T08:41:39.393Z,5.82
2022-12-27T08:44:06.279Z,6.47
2022-12-27T08:46:32.797Z,6.00
2022-12-27T08:48:59.283Z,5.00
2022-12-27T08:51:34.452Z,6.65
2022-12-27T08:54:09.902Z,6.35
2022-12-27T08:56:36.565Z,5.97
2022-12-27T08:59:03.070Z,4.70
2022-12-27T09:01:29.728Z,5.30
2022-12-27T09:03:58.202Z,4.68
2022-12-27T09:06:24.854Z,5.13
2022-12-27T09:08:52.096Z,6.15
2022-12-27T09:11:20.098Z,8.32
2022-12-27T09:13:46.986Z,5.45
2022-12-27T09:16:14.935Z,4.60
2022-12-27T09:18:42.048Z,4.70
2022-12-27T09:21:13.040Z,5.72
2022-12-27T09:23:39.679Z,4.50
2022-12-27T09:26:16.711Z,4.35
2022-12-27T09:28:43.275Z,4.30
2022-12-27T09:31:11.026Z,3.58
2022-12-27T09:33:37.930Z,4.32
2022-12-27T09:36:05.730Z,3.63
2022-12-27T09:38:32.287Z,4.40
2022-12-27T09:41:00.957Z,4.32
2022-12-27T09:43:38.881Z,4.85
2022-12-27T09:46:05.764Z,4.65
2022-12-27T09:48:38.957Z,5.15
2022-12-27T09:51:08.578Z,5.20
2022-12-27T09:53:35.072Z,4.45
2022-12-27T09:56:03.904Z,3.92
2022-12-27T09:58:39.576Z,4.47
2022-12-27T10:01:25.165Z,4.13
2022-12-27T10:03:55.326Z,4.93
2022-12-27T10:06:24.160Z,4.88
2022-12-27T10:08:50.655Z,4.88
2022-12-27T10:11:38.944Z,3.83
2022-12-27T10:14:13.224Z,4.68
2022-12-27T10:16:52.980Z,4.53
2022-12-27T10:19:41.400Z,4.07
2022-12-27T10:22:33.756Z,4.18
2022-12-27T10:25:01.506Z,4.85
2022-12-27T10:27:29.381Z,4.88
2022-12-27T10:29:58.369Z,3.80
2022-12-27T10:32:24.803Z,4.50
2022-12-27T10:35:01.987Z,4.47
2022-12-27T10:37:29.448Z,4.18
2022-12-27T10:40:00.918Z,3.80
2022-12-27T10:42:54.568Z,4.00
2022-12-27T10:45:43.242Z,3.13
2022-12-27T10:49:02.637Z,3.08
2022-12-27T10:51:28.663Z,3.40
2022-12-27T10:54:00.249Z,2.97
2022-12-27T11:07:04.478Z,3.20
2022-12-27T11:26:45.470Z,3.30
2022-12-27T11:32:10.801Z,3.15
2022-12-27T11:34:40.495Z,3.03
2022-12-27T11:37:21.261Z,3.15
2022-12-27T11:39:52.541Z,3.50
2022-12-27T11:45:35.682Z,3.58
2022-12-27T11:48:11.441Z,4.20
2022-12-27T11:50:43.377Z,3.78
2022-12-27T11:53:23.783Z,4.18
2022-12-27T11:56:00.159Z,3.92
2022-12-27T11:58:44.648Z,3.28
2022-12-27T12:01:11.169Z,4.50
2022-12-27T12:03:46.974Z,3.33
2022-12-27T12:06:13.735Z,3.38
2022-12-27T12:08:58.962Z,2.83
2022-12-27T12:11:32.710Z,3.00
2022-12-27T12:14:07.073Z,2.70
2022-12-27T12:16:42.842Z,3.15
2022-12-27T12:19:29.179Z,3.60
2022-12-27T12:21:58.808Z,2.97
2022-12-27T12:24:32.691Z,3.55
2022-12-27T12:27:09.898Z,3.05
2022-12-27T12:29:55.605Z,3.25
2022-12-27T12:32:41.307Z,3.83
2022-12-27T12:35:22.960Z,3.67
2022-12-27T12:38:11.939Z,4.32
2022-12-27T12:40:57.166Z,4.10
2022-12-27T12:43:42.322Z,3.53
2022-12-27T12:46:24.265Z,3.22
2022-12-27T12:49:06.227Z,4.00
2022-12-27T12:51:51.534Z,4.15
2022-12-27T12:54:17.923Z,3.30
2022-12-27T12:57:03.341Z,3.60
2022-12-27T12:59:29.884Z,4.93
2022-12-27T13:02:15.381Z,4.43
2022-12-27T13:05:00.900Z,4.43
2022-12-27T13:07:37.753Z,3.47
2022-12-27T13:10:18.290Z,3.53
2022-12-27T13:12:53.299Z,3.63
2022-12-27T13:15:37.697Z,3.40
2022-12-27T13:18:29.985Z,3.97
2022-12-27T13:21:14.235Z,3.55
2022-12-27T13:26:14.716Z,3.40
2022-12-27T13:28:41.161Z,4.90
2022-12-27T13:31:13.345Z,4.00
2022-12-27T13:33:49.018Z,4.10
2022-12-27T13:36:15.497Z,3.75
2022-12-27T13:39:00.728Z,4.50
2022-12-27T13:41:42.533Z,4.30
2022-12-27T13:44:27.397Z,4.95
2022-12-27T13:46:56.886Z,3.55
2022-12-27T13:49:34.651Z,4.00
2022-12-27T13:52:11.600Z,4.03
2022-12-27T13:54:44.148Z,4.30
2022-12-27T13:57:26.194Z,3.88
2022-12-27T14:00:04.427Z,4.47
2022-12-27T14:02:37.431Z,3.55
2022-12-27T14:05:19.135Z,3.60
2022-12-27T14:07:58.039Z,6.55
2022-12-27T14:10:24.493Z,4.13
2022-12-27T14:13:01.229Z,4.28
2022-12-27T14:15:42.853Z,4.85
2022-12-27T14:18:12.403Z,3.80
2022-12-27T14:20:51.134Z,3.65
2022-12-27T14:23:35.951Z,3.63
2022-12-27T14:26:02.356Z,4.28
2022-12-27T14:28:31.827Z,3.45
2022-12-27T14:31:01.375Z,3.97
2022-12-27T14:33:30.902Z,3.85
2022-12-27T14:36:00.383Z,4.18
2022-12-27T14:38:32.963Z,3.55
2022-12-27T14:41:17.874Z,3.50
2022-12-27T14:43:44.360Z,3.83
2022-12-27T14:46:10.907Z,4.38
2022-12-27T14:48:53.194Z,3.95
2022-12-27T14:51:58.206Z,4.30
2022-12-27T14:54:29.378Z,4.38
2022-12-27T14:57:14.297Z,3.92
2022-12-27T14:59:49.921Z,5.38
2022-12-27T15:02:35.316Z,4.20
2022-12-27T15:05:14.081Z,3.60
2022-12-27T15:07:40.536Z,3.58
2022-12-27T15:10:07.425Z,3.83
2022-12-27T15:12:48.090Z,3.20
2022-12-27T15:15:17.672Z,5.05
2022-12-27T15:17:53.489Z,4.00
2022-12-27T15:20:32.140Z,3.65
2022-12-27T15:23:12.286Z,3.67
2022-12-27T15:25:47.907Z,3.97
2022-12-27T15:28:23.492Z,3.40
2022-12-27T15:30:59.823Z,3.85
2022-12-27T15:33:45.204Z,3.40
2022-12-27T15:36:11.669Z,3.42
2022-12-27T15:38:52.909Z,4.28
2022-12-27T15:41:22.480Z,3.80
2022-12-27T15:44:15.380Z,2.97
2022-12-27T15:46:54.415Z,3.35
2022-12-27T15:49:42.675Z,2.88
2022-12-27T15:52:12.190Z,3.00
2022-12-27T15:54:55.523Z,4.18
2022-12-27T15:57:31.130Z,3.88
2022-12-27T16:00:16.313Z,4.70
2022-12-27T16:02:49.057Z,3.80
2022-12-27T16:05:25.772Z,6.65
2022-12-27T16:07:58.246Z,4.20
2022-12-27T16:10:31.064Z,4.00
2022-12-27T16:13:09.928Z,4.33
2022-12-27T16:15:42.042Z,4.03
2022-12-27T16:18:20.742Z,4.90
2022-12-27T16:20:56.514Z,5.20
2022-12-27T16:23:28.792Z,3.80
2022-12-27T16:26:10.515Z,3.75
2022-12-27T16:28:37.531Z,3.38
2022-12-27T16:31:11.533Z,3.95
2022-12-27T16:33:40.055Z,3.83
2022-12-27T16:36:06.526Z,3.75
2022-12-27T16:38:34.141Z,3.05
2022-12-27T16:41:19.318Z,3.65
2022-12-27T16:43:54.528Z,4.22
2022-12-27T16:46:29.786Z,4.30
2022-12-27T16:49:08.570Z,4.28
2022-12-27T16:51:34.971Z,3.50
2022-12-27T16:54:10.583Z,4.43
2022-12-27T16:56:37.430Z,3.72
2022-12-27T16:59:03.909Z,3.22
2022-12-27T17:01:30.428Z,3.78
2022-12-27T17:03:57.806Z,4.65
2022-12-27T17:06:33.513Z,4.30
2022-12-27T17:09:09.892Z,3.22
2022-12-27T17:11:39.373Z,3.80
2022-12-27T17:14:11.580Z,3.35
2022-12-27T17:16:42.876Z,3.30
2022-12-27T17:19:17.688Z,3.30
2022-12-27T17:21:45.442Z,3.88
2022-12-27T17:24:19.240Z,3.42
2022-12-27T17:26:47.419Z,3.40
2022-12-27T17:29:34.393Z,3.78
2022-12-27T17:32:09.318Z,3.20
2022-12-27T17:34:38.789Z,3.47
2022-12-27T17:37:15.171Z,3.63
2022-12-27T17:39:53.222Z,3.97
2022-12-27T17:42:44.218Z,3.83
2022-12-27T17:45:34.025Z,3.97
2022-12-27T17:48:06.024Z,3.33
2022-12-27T17:50:32.697Z,4.10
2022-12-27T17:53:36.732Z,3.80
2022-12-27T17:56:35.799Z,4.57
2022-12-27T17:59:03.752Z,5.00
2022-12-27T18:01:32.178Z,4.47
2022-12-27T18:03:58.879Z,8.10
2022-12-27T18:06:25.476Z,4.35
2022-12-27T18:08:52.066Z,4.70
2022-12-27T18:11:24.851Z,3.83
2022-12-27T18:13:55.162Z,3.33
2022-12-27T18:16:23.231Z,3.63
2022-12-27T18:18:53.906Z,3.22
2022-12-27T18:21:25.025Z,4.60
2022-12-27T18:23:53.709Z,4.50
2022-12-27T18:26:21.873Z,4.03
2022-12-27T18:28:48.703Z,3.70
2022-12-27T18:31:35.418Z,4.45
2022-12-27T18:34:19.105Z,4.20
2022-12-27T18:36:50.192Z,3.90
2022-12-27T18:39:25.803Z,3.20
2022-12-27T18:41:53.247Z,3.17
2022-12-27T18:44:27.109Z,4.00
2022-12-27T18:46:56.318Z,3.22
2022-12-27T18:49:24.251Z,3.47
2022-12-27T18:51:53.702Z,3.97
2022-12-27T18:54:23.461Z,3.83
2022-12-27T18:56:54.032Z,4.00
2022-12-27T18:59:26.464Z,4.38
2022-12-27T19:02:00.962Z,4.10
2022-12-27T19:04:29.503Z,4.10
2022-12-27T19:06:58.184Z,4.43
2022-12-27T19:09:31.165Z,4.28
2022-12-27T19:12:00.480Z,5.15
2022-12-27T19:14:40.021Z,4.85
2022-12-27T19:17:10.990Z,4.50
2022-12-27T19:19:38.604Z,4.20
2022-12-27T19:22:25.143Z,4.80
2022-12-27T19:24:58.123Z,4.18
2022-12-27T19:27:24.853Z,4.53
2022-12-27T19:29:52.244Z,4.13
2022-12-27T19:32:22.108Z,4.90
2022-12-27T19:34:54.810Z,4.15
2022-12-27T19:37:25.136Z,3.90
2022-12-27T19:39:53.833Z,4.82
2022-12-27T19:42:34.998Z,4.38
2022-12-27T19:45:01.631Z,3.95
2022-12-27T19:47:28.251Z,4.78
2022-12-27T19:49:57.556Z,4.03
2022-12-27T19:52:25.510Z,4.72
2022-12-27T19:54:52.999Z,4.50
2022-12-27T19:57:20.035Z,4.30
2022-12-27T19:59:46.628Z,4.10
2022-12-27T20:02:13.566Z,4.82
2022-12-27T20:04:40.576Z,4.10
2022-12-27T20:07:10.284Z,4.32
2022-12-27T20:09:38.793Z,5.07
2022-12-27T20:12:05.641Z,5.10
2022-12-27T20:14:32.328Z,4.75
2022-12-27T20:16:59.000Z,4.47
2022-12-27T20:19:25.767Z,5.85
2022-12-27T20:21:52.465Z,4.00
2022-12-27T20:24:19.236Z,4.03
2022-12-27T20:26:46.029Z,3.60
2022-12-27T20:29:15.457Z,4.35
2022-12-27T20:31:45.429Z,3.60
2022-12-27T20:34:12.850Z,4.32
2022-12-27T20:36:42.935Z,5.45
2022-12-27T20:39:09.890Z,4.07
2022-12-27T20:41:36.541Z,4.60
2022-12-27T20:44:09.415Z,4.32
2022-12-27T20:46:36.271Z,4.10
2022-12-27T20:49:03.520Z,4.40
2022-12-27T20:51:33.681Z,4.97
2022-12-27T20:54:01.471Z,4.22
2022-12-27T20:56:32.022Z,5.13
2022-12-27T20:58:59.072Z,4.07
2022-12-27T21:01:26.899Z,3.80
2022-12-27T21:03:56.316Z,4.32
2022-12-27T21:06:27.784Z,5.32
2022-12-27T21:08:57.643Z,3.83
2022-12-27T21:11:31.649Z,4.57
2022-12-27T21:16:34.902Z,4.38
2022-12-27T21:19:05.304Z,4.28
2022-12-27T21:21:33.411Z,4.35
2022-12-27T21:24:03.317Z,4.32
2022-12-27T21:26:31.136Z,4.13
2022-12-27T21:28:58.166Z,5.47
2022-12-27T21:31:24.669Z,3.80
2022-12-27T21:33:51.205Z,4.10
2022-12-27T21:36:19.394Z,3.80
2022-12-27T21:38:46.431Z,4.38
2022-12-27T21:41:14.982Z,3.90
2022-12-27T21:43:41.954Z,4.47
2022-12-27T21:46:10.046Z,4.45
2022-12-27T21:48:38.199Z,4.20
2022-12-27T21:51:08.445Z,4.20
2022-12-27T21:53:35.548Z,3.70
2022-12-27T21:56:02.478Z,4.28
2022-12-27T21:58:32.833Z,4.07
2022-12-27T22:01:08.556Z,3.67
2022-12-27T22:03:36.506Z,5.28
2022-12-27T22:06:10.460Z,3.47
2022-12-27T22:08:37.003Z,3.35
2022-12-27T22:11:03.744Z,3.85
2022-12-27T22:13:30.200Z,3.72
2022-12-27T22:15:57.326Z,3.35
2022-12-27T22:18:23.898Z,4.05
2022-12-27T22:20:50.705Z,3.30
2022-12-27T22:23:17.340Z,4.57
2022-12-27T22:25:44.740Z,3.15
2022-12-27T22:28:11.424Z,4.25
2022-12-27T22:30:38.979Z,4.03
2022-12-27T22:33:06.412Z,3.15
2022-12-27T22:35:33.319Z,3.53
2022-12-27T22:38:00.472Z,3.60
2022-12-27T22:40:38.016Z,3.55
2022-12-27T22:43:12.526Z,3.90
2022-12-27T22:45:40.697Z,3.58
2022-12-27T22:48:07.342Z,3.75
2022-12-27T22:50:33.796Z,2.97
2022-12-27T22:53:02.544Z,3.80
2022-12-27T22:55:29.086Z,3.60
2022-12-27T22:57:55.566Z,3.10
2022-12-27T23:00:21.990Z,3.17
2022-12-27T23:02:48.536Z,3.13
2022-12-27T23:05:18.071Z,3.53
2022-12-27T23:08:05.578Z,4.25
2022-12-27T23:10:31.010Z,3.20
2022-12-27T23:12:57.520Z,3.08
2022-12-27T23:15:23.956Z,2.70
2022-12-27T23:17:50.506Z,3.45
2022-12-27T23:20:16.998Z,2.80
2022-12-27T23:22:43.474Z,3.75
2022-12-27T23:25:09.923Z,2.97
2022-12-27T23:27:36.418Z,3.35
2022-12-27T23:30:03.205Z,3.15
2022-12-27T23:32:29.681Z,3.05
2022-12-27T23:34:56.160Z,3.70
2022-12-27T23:37:22.671Z,3.80
2022-12-27T23:39:49.135Z,3.28
2022-12-27T23:42:15.585Z,3.67
2022-12-27T23:44:42.019Z,2.72
2022-12-27T23:47:08.586Z,3.10
2022-12-27T23:49:35.115Z,3.55
2022-12-27T23:52:01.659Z,4.38
2022-12-27T23:54:28.139Z,3.13
2022-12-27T23:56:54.641Z,3.22
2022-12-27T23:59:21.196Z,2.72
